createdAt,value
2023-03-01T00:01:42.600Z,90.00
2023-03-01T00:04:09.509Z,90.00
2023-03-01T00:06:36.591Z,90.10
2023-03-01T00:09:03.909Z,89.90
2023-03-01T00:11:34.170Z,89.60
2023-03-01T00:14:03.107Z,89.30
2023-03-01T00:16:35.496Z,89.30
2023-03-01T00:19:03.199Z,89.30
2023-03-01T00:21:30.830Z,89.30
2023-03-01T00:23:58.807Z,89.30
2023-03-01T00:26:29.073Z,89.20
2023-03-01T00:28:58.826Z,89.20
2023-03-01T00:31:31.862Z,89.00
2023-03-01T00:34:04.099Z,89.00
2023-03-01T00:36:36.564Z,89.20
2023-03-01T00:39:10.519Z,88.40
2023-03-01T00:41:37.399Z,88.30
2023-03-01T00:44:04.645Z,87.80
2023-03-01T00:46:32.003Z,87.60
2023-03-01T00:48:59.276Z,88.10
2023-03-01T00:51:29.430Z,87.40
2023-03-01T00:54:01.404Z,87.20
2023-03-01T00:56:29.675Z,87.00
2023-03-01T00:58:57.342Z,87.10
2023-03-01T01:01:32.883Z,87.10
2023-03-01T01:04:12.486Z,87.10
2023-03-01T01:06:47.262Z,87.20
2023-03-01T01:09:18.525Z,86.80
2023-03-01T01:11:51.265Z,86.60
2023-03-01T01:14:19.848Z,86.50
2023-03-01T01:16:47.483Z,86.40
2023-03-01T01:19:15.401Z,86.50
2023-03-01T01:21:45.833Z,86.40
2023-03-01T01:24:13.317Z,86.50
2023-03-01T01:26:40.655Z,86.90
2023-03-01T01:29:08.759Z,87.20
2023-03-01T01:31:39.121Z,87.20
2023-03-01T01:34:13.328Z,87.20
2023-03-01T01:36:40.288Z,87.30
2023-03-01T01:39:08.093Z,87.40
2023-03-01T01:41:34.961Z,88.10
2023-03-01T01:44:28.709Z,87.40
2023-03-01T01:47:22.840Z,87.60
2023-03-01T01:49:57.568Z,87.60
2023-03-01T01:52:38.983Z,87.80
2023-03-01T01:55:26.358Z,88.50
2023-03-01T01:58:00.819Z,88.50
2023-03-01T02:00:31.080Z,88.40
2023-03-01T02:03:20.687Z,88.30
2023-03-01T02:06:14.340Z,88.20
2023-03-01T02:08:46.441Z,88.10
2023-03-01T02:11:15.589Z,87.90
2023-03-01T02:13:43.999Z,88.00
2023-03-01T02:16:16.563Z,88.00
2023-03-01T02:18:45.735Z,88.00
2023-03-01T02:21:59.732Z,87.90
2023-03-01T02:25:05.176Z,87.80
2023-03-01T02:27:50.348Z,87.70
2023-03-01T02:30:19.670Z,87.70
2023-03-01T02:32:48.826Z,87.70
2023-03-01T02:35:20.261Z,87.60
2023-03-01T02:37:49.265Z,87.50
2023-03-01T02:40:19.702Z,87.40
2023-03-01T02:42:59.430Z,87.30
2023-03-01T02:45:28.127Z,87.40
2023-03-01T02:47:57.611Z,87.40
2023-03-01T02:50:30.509Z,87.30
2023-03-01T02:53:26.433Z,87.20
2023-03-01T02:55:53.625Z,87.10
2023-03-01T02:58:20.906Z,87.20
2023-03-01T03:00:50.232Z,87.40
2023-03-01T03:03:21.697Z,87.50
2023-03-01T03:05:49.277Z,87.40
2023-03-01T03:08:24.678Z,87.30
2023-03-01T03:10:51.843Z,87.40
2023-03-01T03:13:19.947Z,88.10
2023-03-01T03:15:46.875Z,88.20
2023-03-01T03:18:18.478Z,88.20
2023-03-01T03:20:46.812Z,87.90
2023-03-01T03:23:14.581Z,88.00
2023-03-01T03:25:41.438Z,87.90
2023-03-01T03:28:11.666Z,88.30
2023-03-01T03:30:42.012Z,88.80
2023-03-01T03:33:13.579Z,88.50
2023-03-01T03:35:49.103Z,88.10
2023-03-01T03:38:22.697Z,87.90
2023-03-01T03:41:04.774Z,87.90
2023-03-01T03:43:36.071Z,89.60
2023-03-01T03:46:06.622Z,89.40
2023-03-01T03:48:44.727Z,89.30
2023-03-01T03:51:16.379Z,89.00
2023-03-01T03:53:45.332Z,88.70
2023-03-01T03:56:13.075Z,89.20
2023-03-01T03:58:40.062Z,90.00
2023-03-01T04:01:07.180Z,90.00
2023-03-01T04:03:35.971Z,90.10
2023-03-01T04:06:05.032Z,90.10
2023-03-01T04:08:32.774Z,90.20
2023-03-01T04:11:24.439Z,90.50
2023-03-01T04:13:55.706Z,90.50
2023-03-01T04:16:24.409Z,90.70
2023-03-01T04:18:51.715Z,90.80
2023-03-01T04:21:18.671Z,90.80
2023-03-01T04:23:45.553Z,90.80
2023-03-01T04:26:12.723Z,90.80
2023-03-01T04:28:46.697Z,90.80
2023-03-01T04:31:19.380Z,91.00
2023-03-01T04:33:56.771Z,91.00
2023-03-01T04:36:29.187Z,91.90
2023-03-01T04:38:57.361Z,91.60
2023-03-01T04:41:26.385Z,91.70
2023-03-01T04:43:53.508Z,91.70
2023-03-01T04:46:22.482Z,91.70
2023-03-01T04:48:50.068Z,92.00
2023-03-01T04:51:17.614Z,92.10
2023-03-01T04:53:45.389Z,92.00
2023-03-01T04:56:14.909Z,92.10
2023-03-01T04:58:42.650Z,92.10
2023-03-01T05:01:16.959Z,91.90
2023-03-01T05:03:50.891Z,91.80
2023-03-01T05:06:21.164Z,91.60
2023-03-01T05:08:48.448Z,91.60
2023-03-01T05:11:15.434Z,91.50
2023-03-01T05:13:43.047Z,91.40
2023-03-01T05:16:12.310Z,91.40
2023-03-01T05:18:41.869Z,91.20
2023-03-01T05:21:18.353Z,91.00
2023-03-01T05:23:47.664Z,91.20
2023-03-01T05:26:33.222Z,90.90
2023-03-01T05:29:00.997Z,90.50
2023-03-01T05:31:28.646Z,90.30
2023-03-01T05:33:55.662Z,90.30
2023-03-01T05:36:22.517Z,90.10
2023-03-01T05:38:49.405Z,89.80
2023-03-01T05:41:17.828Z,89.50
2023-03-01T05:43:45.813Z,89.30
2023-03-01T05:46:14.175Z,89.20
2023-03-01T05:48:41.326Z,88.90
2023-03-01T05:51:08.319Z,88.70
2023-03-01T05:53:35.200Z,88.70
2023-03-01T05:56:05.594Z,88.90
2023-03-01T05:58:32.969Z,88.80
2023-03-01T06:00:59.915Z,88.60
2023-03-01T06:03:26.801Z,88.60
2023-03-01T06:05:59.001Z,88.60
2023-03-01T06:08:28.005Z,88.70
2023-03-01T06:10:54.910Z,88.80
2023-03-01T06:13:23.870Z,89.40
2023-03-01T06:15:50.996Z,88.90
2023-03-01T06:18:17.862Z,88.80
2023-03-01T06:20:44.749Z,88.70
2023-03-01T06:23:11.633Z,88.70
2023-03-01T06:25:38.616Z,88.70
2023-03-01T06:28:05.547Z,88.70
2023-03-01T06:30:32.964Z,88.50
2023-03-01T06:33:02.050Z,88.40
2023-03-01T06:35:31.893Z,88.20
2023-03-01T06:38:02.602Z,88.00
2023-03-01T06:40:32.074Z,87.80
2023-03-01T06:43:00.094Z,87.60
2023-03-01T06:45:27.000Z,87.40
2023-03-01T06:48:01.826Z,87.40
2023-03-01T06:50:28.713Z,87.20
2023-03-01T06:52:59.162Z,87.00
2023-03-01T06:55:26.138Z,87.00
2023-03-01T06:58:02.314Z,86.40
2023-03-01T07:00:30.818Z,85.90
2023-03-01T07:03:02.855Z,85.80
2023-03-01T07:05:31.524Z,85.40
2023-03-01T07:07:58.571Z,85.10
2023-03-01T07:10:25.770Z,84.30
2023-03-01T07:12:59.515Z,83.00
2023-03-01T07:15:29.586Z,81.40
2023-03-01T07:17:57.827Z,80.30
2023-03-01T07:20:26.103Z,79.40
2023-03-01T07:22:59.249Z,77.40
2023-03-01T07:25:26.308Z,76.40
2023-03-01T07:27:55.175Z,75.70
2023-03-01T07:30:23.008Z,74.90
2023-03-01T07:32:50.158Z,73.40
2023-03-01T07:35:17.116Z,72.30
2023-03-01T07:37:44.766Z,71.70
2023-03-01T07:40:13.233Z,71.50
2023-03-01T07:42:40.076Z,70.00
2023-03-01T07:45:08.536Z,69.80
2023-03-01T07:47:36.809Z,69.30
2023-03-01T07:50:05.056Z,69.10
2023-03-01T07:52:32.006Z,68.40
2023-03-01T07:54:58.994Z,68.70
2023-03-01T07:57:26.159Z,68.50
2023-03-01T07:59:53.009Z,67.10
2023-03-01T08:02:19.851Z,67.30
2023-03-01T08:04:46.772Z,66.60
2023-03-01T08:07:13.614Z,66.90
2023-03-01T08:09:40.638Z,65.50
2023-03-01T08:12:07.711Z,65.00
2023-03-01T08:14:34.612Z,64.90
2023-03-01T08:17:03.749Z,64.60
2023-03-01T08:19:31.197Z,64.30
2023-03-01T08:21:59.070Z,64.50
2023-03-01T08:24:26.248Z,63.20
2023-03-01T08:26:53.153Z,63.10
2023-03-01T08:29:20.071Z,62.70
2023-03-01T08:31:48.235Z,61.20
2023-03-01T08:34:18.623Z,61.30
2023-03-01T08:36:47.588Z,59.70
2023-03-01T08:39:19.198Z,60.00
2023-03-01T08:41:48.261Z,60.50
2023-03-01T08:44:21.650Z,59.10
2023-03-01T08:46:50.814Z,59.10
2023-03-01T08:49:20.523Z,59.40
2023-03-01T08:51:48.809Z,58.80
2023-03-01T08:54:21.622Z,57.90
2023-03-01T08:56:50.081Z,57.30
2023-03-01T08:59:19.226Z,56.60
2023-03-01T09:03:38.031Z,55.30
2023-03-01T09:06:08.296Z,56.00
2023-03-01T09:08:42.252Z,54.70
2023-03-01T09:11:14.626Z,54.00
2023-03-01T09:13:44.207Z,54.30
2023-03-01T09:16:15.143Z,54.30
2023-03-01T09:18:42.355Z,52.50
2023-03-01T09:21:15.368Z,53.30
2023-03-01T09:23:47.042Z,53.10
2023-03-01T09:26:24.788Z,53.50
2023-03-01T09:28:56.942Z,51.30
2023-03-01T09:31:26.021Z,48.80
2023-03-01T09:33:55.789Z,49.60
2023-03-01T09:36:26.455Z,48.60
2023-03-01T09:38:54.162Z,47.20
2023-03-01T09:41:48.675Z,49.90
2023-03-01T09:44:46.850Z,48.80
2023-03-01T09:47:24.774Z,48.80
2023-03-01T09:50:21.537Z,49.10
2023-03-01T09:53:00.106Z,48.60
2023-03-01T09:55:43.793Z,47.50
2023-03-01T09:59:16.206Z,48.10
2023-03-01T10:02:12.206Z,46.30
2023-03-01T10:05:08.161Z,46.30
2023-03-01T10:08:14.856Z,44.00
2023-03-01T10:10:49.171Z,44.50
2023-03-01T10:13:43.883Z,45.20
2023-03-01T10:16:23.755Z,46.20
2023-03-01T10:19:02.380Z,46.40
2023-03-01T10:21:32.462Z,45.20
2023-03-01T10:24:15.856Z,45.30
2023-03-01T10:27:15.970Z,45.20
2023-03-01T10:30:12.187Z,44.90
2023-03-01T10:32:39.889Z,43.50
2023-03-01T10:35:29.497Z,43.30
2023-03-01T10:38:14.407Z,40.90
2023-03-01T10:41:06.411Z,39.50
2023-03-01T10:44:36.518Z,38.80
2023-03-01T10:47:03.775Z,37.40
2023-03-01T10:49:30.916Z,39.10
2023-03-01T10:52:19.865Z,38.10
2023-03-01T10:55:02.075Z,38.30
2023-03-01T10:57:42.789Z,37.50
2023-03-01T11:00:26.262Z,37.50
2023-03-01T11:02:59.127Z,36.60
2023-03-01T11:05:29.358Z,36.70
2023-03-01T11:08:00.166Z,36.60
2023-03-01T11:10:31.488Z,37.70
2023-03-01T11:13:20.359Z,36.50
2023-03-01T11:16:10.937Z,37.10
2023-03-01T11:18:47.743Z,35.70
2023-03-01T11:21:17.443Z,34.70
2023-03-01T11:23:47.852Z,34.30
2023-03-01T11:26:18.305Z,34.10
2023-03-01T11:28:56.452Z,33.40
2023-03-01T11:31:27.670Z,33.40
2023-03-01T11:34:18.704Z,33.40
2023-03-01T11:37:02.608Z,33.00
2023-03-01T11:40:05.841Z,34.10
2023-03-01T11:43:03.093Z,34.60
2023-03-01T11:46:30.680Z,35.70
2023-03-01T11:49:33.198Z,34.20
2023-03-01T11:52:42.988Z,34.20
2023-03-01T11:56:03.767Z,33.60
2023-03-01T11:59:03.655Z,33.90
2023-03-01T12:02:05.947Z,33.90
2023-03-01T12:05:06.731Z,34.10
2023-03-01T12:08:12.438Z,34.40
2023-03-01T12:11:28.884Z,34.40
2023-03-01T12:14:26.808Z,34.00
2023-03-01T12:17:37.038Z,34.10
2023-03-01T12:20:21.536Z,33.60
2023-03-01T12:23:24.535Z,34.20
2023-03-01T12:26:07.675Z,35.00
2023-03-01T12:29:17.379Z,34.50
2023-03-01T12:32:22.724Z,34.30
2023-03-01T12:35:46.272Z,34.50
2023-03-01T12:39:19.982Z,33.60
2023-03-01T12:42:14.422Z,33.60
2023-03-01T12:45:18.295Z,33.80
2023-03-01T12:48:40.044Z,34.00
2023-03-01T12:51:23.449Z,34.10
2023-03-01T12:53:55.664Z,34.10
2023-03-01T12:56:38.783Z,33.80
2023-03-01T12:59:50.043Z,34.20
2023-03-01T13:02:41.944Z,34.50
2023-03-01T13:06:01.564Z,34.80
2023-03-01T13:09:03.563Z,34.20
2023-03-01T13:11:30.856Z,34.80
2023-03-01T13:14:25.535Z,36.00
2023-03-01T13:16:56.445Z,36.00
2023-03-01T13:19:37.079Z,35.30
2023-03-01T13:22:32.685Z,34.90
2023-03-01T13:25:19.350Z,35.20
2023-03-01T13:27:48.085Z,35.10
2023-03-01T13:30:42.220Z,35.80
2023-03-01T13:33:24.420Z,35.90
2023-03-01T13:35:51.327Z,36.40
2023-03-01T13:38:59.080Z,36.40
2023-03-01T13:41:58.714Z,36.40
2023-03-01T13:44:33.623Z,36.40
2023-03-01T13:47:08.484Z,36.40
2023-03-01T13:49:58.510Z,36.20
2023-03-01T13:53:03.163Z,35.70
2023-03-01T13:55:56.637Z,36.60
2023-03-01T13:58:47.221Z,37.00
2023-03-01T14:01:37.140Z,37.70
2023-03-01T14:04:24.048Z,37.80
2023-03-01T14:06:51.125Z,37.90
2023-03-01T14:09:29.328Z,38.00
2023-03-01T14:12:22.231Z,38.50
2023-03-01T14:15:02.890Z,38.30
2023-03-01T14:17:50.870Z,38.80
2023-03-01T14:20:33.183Z,39.50
2023-03-01T14:23:12.588Z,38.70
2023-03-01T14:25:50.832Z,38.30
2023-03-01T14:28:27.206Z,38.90
2023-03-01T14:31:00.380Z,39.60
2023-03-01T14:33:35.366Z,39.80
2023-03-01T14:36:11.075Z,39.80
2023-03-01T14:38:48.139Z,40.90
2023-03-01T14:41:25.357Z,41.10
2023-03-01T14:44:01.871Z,40.70
2023-03-01T14:46:45.138Z,41.30
2023-03-01T14:49:26.611Z,41.10
2023-03-01T14:52:05.044Z,40.90
2023-03-01T14:54:46.920Z,41.10
2023-03-01T14:57:26.616Z,41.70
2023-03-01T15:00:01.209Z,42.50
2023-03-01T15:02:31.199Z,41.00
2023-03-01T15:05:08.975Z,42.50
2023-03-01T15:07:43.343Z,43.70
2023-03-01T15:10:27.993Z,44.30
2023-03-01T15:12:55.858Z,44.70
2023-03-01T15:15:47.411Z,45.40
2023-03-01T15:18:26.765Z,46.10
2023-03-01T15:20:54.951Z,46.30
2023-03-01T15:23:28.971Z,47.40
2023-03-01T15:25:58.223Z,48.20
2023-03-01T15:28:43.725Z,47.50
2023-03-01T15:31:35.969Z,47.60
2023-03-01T15:34:37.641Z,47.50
2023-03-01T15:37:46.117Z,47.90
2023-03-01T15:40:21.463Z,48.70
2023-03-01T15:42:48.421Z,50.30
2023-03-01T15:45:18.008Z,50.40
2023-03-01T15:47:53.760Z,50.40
2023-03-01T15:50:34.954Z,50.90
2023-03-01T15:53:09.049Z,50.70
2023-03-01T15:55:35.971Z,50.50
2023-03-01T15:58:15.336Z,50.70
2023-03-01T16:00:58.154Z,51.10
2023-03-01T16:03:27.405Z,51.40
2023-03-01T16:05:54.564Z,51.30
2023-03-01T16:08:21.574Z,50.60
2023-03-01T16:10:50.777Z,51.60
2023-03-01T16:13:18.561Z,51.50
2023-03-01T16:15:46.142Z,51.70
2023-03-01T16:18:13.251Z,51.90
2023-03-01T16:20:40.959Z,52.30
2023-03-01T16:23:11.848Z,53.30
2023-03-01T16:25:38.953Z,53.80
2023-03-01T16:28:10.140Z,54.40
2023-03-01T16:30:40.302Z,54.70
2023-03-01T16:33:24.383Z,55.20
2023-03-01T16:35:56.234Z,56.00
2023-03-01T16:38:23.274Z,56.50
2023-03-01T16:40:52.533Z,57.10
2023-03-01T16:43:19.742Z,57.50
2023-03-01T16:45:47.344Z,58.40
2023-03-01T16:48:15.331Z,59.20
2023-03-01T16:50:42.401Z,59.80
2023-03-01T16:53:09.565Z,60.60
2023-03-01T16:55:36.736Z,61.30
2023-03-01T16:58:05.010Z,61.60
2023-03-01T17:00:31.990Z,62.20
2023-03-01T17:02:59.132Z,62.40
2023-03-01T17:05:26.762Z,63.00
2023-03-01T17:07:56.423Z,63.60
2023-03-01T17:10:23.352Z,63.90
2023-03-01T17:12:51.279Z,64.40
2023-03-01T17:15:18.264Z,64.80
2023-03-01T17:17:45.238Z,64.90
2023-03-01T17:20:13.085Z,65.40
2023-03-01T17:22:39.996Z,65.50
2023-03-01T17:25:10.956Z,65.70
2023-03-01T17:27:39.612Z,65.70
2023-03-01T17:30:13.771Z,66.10
2023-03-01T17:32:42.204Z,66.40
2023-03-01T17:35:11.856Z,66.60
2023-03-01T17:37:40.285Z,66.60
2023-03-01T17:40:08.495Z,67.00
2023-03-01T17:42:35.499Z,67.10
2023-03-01T17:45:02.380Z,66.90
2023-03-01T17:47:29.312Z,67.00
2023-03-01T17:49:56.236Z,67.20
2023-03-01T17:52:23.692Z,67.40
2023-03-01T17:54:51.476Z,67.70
2023-03-01T17:57:18.480Z,67.80
2023-03-01T17:59:45.338Z,68.00
2023-03-01T18:02:15.339Z,68.30
2023-03-01T18:04:42.256Z,68.40
2023-03-01T18:07:09.131Z,68.80
2023-03-01T18:09:36.022Z,68.80
2023-03-01T18:12:02.933Z,69.10
2023-03-01T18:14:33.769Z,69.10
2023-03-01T18:17:06.542Z,68.90
2023-03-01T18:19:33.590Z,69.40
2023-03-01T18:22:00.498Z,69.50
2023-03-01T18:24:27.416Z,69.80
2023-03-01T18:26:54.360Z,69.80
2023-03-01T18:29:21.244Z,69.90
2023-03-01T18:31:48.370Z,70.20
2023-03-01T18:34:15.528Z,70.70
2023-03-01T18:36:47.901Z,70.90
2023-03-01T18:39:24.752Z,70.80
2023-03-01T18:41:51.852Z,71.00
2023-03-01T18:44:18.841Z,71.00
2023-03-01T18:46:48.917Z,70.70
2023-03-01T18:49:16.268Z,70.90
2023-03-01T18:51:43.793Z,71.00
2023-03-01T18:54:12.800Z,71.30
2023-03-01T18:56:40.171Z,71.30
2023-03-01T18:59:07.486Z,71.30
2023-03-01T19:01:37.298Z,71.30
2023-03-01T19:04:05.207Z,71.30
2023-03-01T19:06:35.220Z,71.70
2023-03-01T19:09:03.148Z,72.10
2023-03-01T19:11:33.091Z,72.20
2023-03-01T19:14:02.420Z,72.00
2023-03-01T19:16:34.607Z,72.00
2023-03-01T19:19:08.226Z,72.20
2023-03-01T19:21:35.663Z,72.40
2023-03-01T19:24:02.799Z,72.40
2023-03-01T19:26:31.690Z,72.40
2023-03-01T19:28:59.431Z,72.30
2023-03-01T19:31:30.867Z,72.40
2023-03-01T19:34:11.579Z,72.30
2023-03-01T19:36:43.961Z,73.00
2023-03-01T19:39:13.917Z,73.40
2023-03-01T19:41:42.357Z,73.40
2023-03-01T19:44:10.025Z,73.60
2023-03-01T19:46:37.540Z,73.60
2023-03-01T19:49:05.037Z,73.90
2023-03-01T19:51:38.805Z,74.00
2023-03-01T19:54:07.046Z,74.10
2023-03-01T19:56:35.645Z,74.00
2023-03-01T19:59:04.379Z,73.90
2023-03-01T20:01:34.056Z,74.10
2023-03-01T20:04:03.434Z,74.10
2023-03-01T20:06:31.190Z,74.30
2023-03-01T20:09:00.665Z,74.50
2023-03-01T20:11:29.195Z,74.70
2023-03-01T20:13:56.500Z,74.60
2023-03-01T20:16:24.321Z,75.20
2023-03-01T20:18:51.183Z,74.80
2023-03-01T20:21:24.860Z,74.80
2023-03-01T20:23:53.617Z,74.80
2023-03-01T20:26:22.957Z,74.60
2023-03-01T20:28:54.896Z,74.80
2023-03-01T20:31:29.075Z,75.30
2023-03-01T20:33:59.452Z,75.60
2023-03-01T20:36:28.239Z,75.70
2023-03-01T20:38:56.344Z,75.70
2023-03-01T20:41:26.865Z,75.40
2023-03-01T20:43:56.309Z,75.50
2023-03-01T20:46:26.583Z,75.70
2023-03-01T20:48:54.237Z,75.70
2023-03-01T20:51:22.285Z,75.40
2023-03-01T20:53:49.586Z,75.60
2023-03-01T20:56:19.709Z,75.70
2023-03-01T20:58:47.103Z,75.70
2023-03-01T21:01:21.039Z,75.80
2023-03-01T21:03:48.298Z,75.60
2023-03-01T21:06:15.265Z,75.70
2023-03-01T21:08:42.291Z,75.80
2023-03-01T21:11:10.086Z,76.00
2023-03-01T21:13:36.991Z,76.00
2023-03-01T21:16:14.038Z,76.20
2023-03-01T21:18:42.529Z,76.20
2023-03-01T21:21:14.123Z,76.50
2023-03-01T21:23:44.201Z,76.70
2023-03-01T21:26:23.808Z,77.00
2023-03-01T21:28:58.147Z,77.20
2023-03-01T21:31:34.656Z,77.20
2023-03-01T21:34:06.705Z,77.30
2023-03-01T21:36:35.938Z,77.30
2023-03-01T21:39:06.139Z,77.10
2023-03-01T21:41:37.358Z,77.00
2023-03-01T21:44:07.107Z,77.10
2023-03-01T21:46:39.049Z,77.10
2023-03-01T21:49:09.981Z,77.40
2023-03-01T21:51:37.383Z,77.60
2023-03-01T21:54:05.547Z,77.80
2023-03-01T21:56:38.595Z,77.70
2023-03-01T21:59:09.306Z,77.80
2023-03-01T22:01:36.409Z,78.00
2023-03-01T22:04:03.575Z,77.90
2023-03-01T22:06:45.206Z,77.90
2023-03-01T22:09:21.601Z,78.10
2023-03-01T22:12:01.898Z,78.20
2023-03-01T22:14:32.619Z,78.20
2023-03-01T22:16:59.667Z,78.30
2023-03-01T22:19:28.527Z,78.60
2023-03-01T22:21:55.422Z,79.10
2023-03-01T22:24:25.364Z,79.10
2023-03-01T22:26:54.895Z,79.20
2023-03-01T22:29:29.268Z,79.20
2023-03-01T22:31:57.959Z,79.30
2023-03-01T22:34:26.238Z,79.20
2023-03-01T22:36:53.266Z,79.40
2023-03-01T22:39:21.487Z,79.60
2023-03-01T22:41:50.142Z,80.00
2023-03-01T22:44:23.390Z,80.00
2023-03-01T22:46:52.159Z,80.00
2023-03-01T22:49:21.226Z,79.90
2023-03-01T22:51:49.071Z,80.20
2023-03-01T22:54:19.308Z,80.40
2023-03-01T22:56:47.045Z,80.80
2023-03-01T22:59:18.953Z,81.10
2023-03-01T23:01:47.926Z,81.30
2023-03-01T23:04:17.396Z,81.60
2023-03-01T23:06:53.549Z,81.60
2023-03-01T23:09:34.279Z,81.90
2023-03-01T23:12:07.312Z,81.90
2023-03-01T23:14:35.132Z,81.60
2023-03-01T23:17:03.538Z,81.40
2023-03-01T23:19:30.983Z,81.90
2023-03-01T23:21:58.044Z,82.10
2023-03-01T23:24:31.132Z,82.20
2023-03-01T23:27:02.047Z,82.70
2023-03-01T23:29:29.562Z,83.20
2023-03-01T23:31:57.928Z,83.60
2023-03-01T23:34:27.358Z,83.80
2023-03-01T23:36:55.705Z,83.70
2023-03-01T23:39:22.883Z,83.80
2023-03-01T23:41:50.242Z,84.10
2023-03-01T23:44:20.846Z,84.10
2023-03-01T23:46:50.110Z,84.00
2023-03-01T23:49:21.909Z,84.10
2023-03-01T23:51:49.684Z,84.00
2023-03-01T23:54:21.890Z,83.70
2023-03-01T23:56:48.874Z,83.70
2023-03-01T23:59:22.017Z,84.10
